Totland Bay, United Kingdom
Current Conditions -  °F | °C
As of 8:20 PM on Saturday 25 Oct 2014 (Local Time) from EGHH Reporting Station
Broken Clouds Broken Clouds  
Wind Chill: 55°   Ceiling: 3800
Heat Index: 55°   Visibility: 6mi
Dew Point: 50°   Wind: 6mph
Humidity: 82%   Direction: 230°SW
Pressure: 30.15"   Gusts: NA
Location:  50.68°N, 1.53°W
Report Text: EGHH 251920Z 23005KT 9999 BKN038 13/10 Q1021
Loading
Personal Weather Stations






























Interactive Weather Map New forecast layout! Learn more

10-Day Weather Forecast

Advertisements
Track Severe Weather on mobile